Time;durP1;ratioP1;P1;durP2;ratioP2;P2;SDS_P1;SDS_P2;PMS_P1;PMS_P2;Temp;Humidity;BMP_temperature;BMP_pressure;BME280_temperature;BME280_humidity;BME280_pressure;Samples;Min_cycle;Max_cycle;Signal;HPM_P1;HPM_P2
2022/06/28 00:00:25;;;;;;;2.87;1.77;;;17.00;99.90;;;;;;5031150;28;21122;-75
2022/06/28 00:02:51;;;;;;;4.17;2.00;;;16.90;99.90;;;;;;5034613;28;20568;-76
2022/06/28 00:05:17;;;;;;;2.87;2.37;;;17.00;99.90;;;;;;5034794;28;20742;-75
2022/06/28 00:07:43;;;;;;;2.03;1.83;;;16.90;99.90;;;;;;5033377;28;20581;-75
2022/06/28 00:10:11;;;;;;;2.40;1.83;;;16.90;99.90;;;;;;5034398;28;20695;-76
2022/06/28 00:12:38;;;;;;;4.03;2.20;;;16.90;99.90;;;;;;5033060;28;20679;-76
2022/06/28 00:17:51;;;;;;;4.87;1.97;;;16.90;99.90;;;;;;5033117;28;20717;-76
2022/06/28 00:20:17;;;;;;;2.47;2.10;;;16.80;99.90;;;;;;5034222;28;21131;-76
2022/06/28 00:22:43;;;;;;;3.03;1.93;;;16.80;99.90;;;;;;5034039;28;20565;-77
2022/06/28 00:25:10;;;;;;;2.77;2.33;;;16.80;99.90;;;;;;5034454;28;20579;-76
2022/06/28 00:27:36;;;;;;;3.43;2.13;;;16.80;99.90;;;;;;5033252;28;20173;-75
2022/06/28 00:30:04;;;;;;;3.10;1.80;;;16.80;99.90;;;;;;5032110;28;21158;-75
2022/06/28 00:32:32;;;;;;;2.80;1.97;;;16.80;99.90;;;;;;5015745;28;20588;-76
2022/06/28 00:34:58;;;;;;;2.03;1.60;;;16.80;99.90;;;;;;5032755;28;20584;-78
2022/06/28 00:37:24;;;;;;;3.77;2.17;;;16.70;99.90;;;;;;5033039;28;20670;-78
2022/06/28 00:39:50;;;;;;;3.17;2.30;;;16.70;99.90;;;;;;5016116;28;20688;-78
2022/06/28 00:42:16;;;;;;;2.53;2.33;;;16.70;99.90;;;;;;5032134;28;20600;-78
2022/06/28 00:44:42;;;;;;;3.43;2.73;;;16.70;99.90;;;;;;5034190;28;20178;-78
2022/06/28 00:47:09;;;;;;;3.90;2.93;;;16.70;99.90;;;;;;5034295;28;20572;-78
2022/06/28 00:49:40;;;;;;;4.77;2.80;;;16.70;99.90;;;;;;5033141;28;20626;-79
2022/06/28 00:52:07;;;;;;;3.00;2.67;;;16.70;99.90;;;;;;5036586;28;20939;-78
2022/06/28 00:54:33;;;;;;;3.10;2.80;;;16.60;99.90;;;;;;5016962;28;20576;-78
2022/06/28 00:56:59;;;;;;;2.97;2.67;;;16.60;99.90;;;;;;5017289;28;20620;-77
2022/06/28 00:59:26;;;;;;;2.40;2.20;;;16.60;99.90;;;;;;5033720;28;20722;-78
2022/06/28 01:01:52;;;;;;;2.43;2.23;;;16.60;99.90;;;;;;5033058;28;20576;-78
2022/06/28 01:04:18;;;;;;;3.03;2.30;;;16.60;99.90;;;;;;5049724;28;20917;-78
2022/06/28 01:06:45;;;;;;;3.30;2.23;;;16.60;99.90;;;;;;5034215;28;20991;-78
2022/06/28 01:09:11;;;;;;;2.67;2.33;;;16.60;99.90;;;;;;5032886;28;20691;-79
2022/06/28 01:11:37;;;;;;;3.50;2.30;;;16.60;99.90;;;;;;5015470;28;20584;-78
2022/06/28 01:14:09;;;;;;;2.50;2.30;;;16.50;99.90;;;;;;5015994;28;20572;-77
2022/06/28 01:16:51;;;;;;;2.63;2.10;;;16.50;99.90;;;;;;5032246;28;20565;-77
2022/06/28 01:19:21;;;;;;;6.00;2.60;;;16.50;99.90;;;;;;5031952;28;20647;-78
2022/06/28 01:21:53;;;;;;;6.23;2.37;;;16.50;99.90;;;;;;5031576;28;21128;-77
2022/06/28 01:24:24;;;;;;;4.93;2.50;;;16.50;99.90;;;;;;5032350;28;20576;-78
2022/06/28 01:27:04;;;;;;;3.53;2.60;;;16.50;99.90;;;;;;5032378;28;20595;-77
2022/06/28 01:29:31;;;;;;;4.70;2.73;;;16.50;99.90;;;;;;5036617;28;20624;-75
2022/06/28 01:32:14;;;;;;;3.50;2.73;;;16.50;99.90;;;;;;5031293;28;20583;-75
2022/06/28 01:34:41;;;;;;;2.70;2.50;;;16.40;99.90;;;;;;5016496;28;20778;-75
2022/06/28 01:37:09;;;;;;;3.10;2.47;;;16.40;99.90;;;;;;5032572;28;20618;-76
2022/06/28 01:39:35;;;;;;;2.50;1.90;;;16.40;99.90;;;;;;5033761;28;20600;-76
2022/06/28 01:42:01;;;;;;;2.37;2.17;;;16.40;99.90;;;;;;5048760;28;20643;-75
2022/06/28 01:44:30;;;;;;;3.13;2.80;;;16.30;99.90;;;;;;5032093;28;20592;-75
2022/06/28 01:47:11;;;;;;;3.53;2.53;;;16.30;99.90;;;;;;5031710;28;20627;-75
2022/06/28 01:50:01;;;;;;;4.80;2.60;;;16.30;99.90;;;;;;5004179;28;20612;-76
2022/06/28 01:52:32;;;;;;;3.93;2.83;;;16.30;99.90;;;;;;5016084;28;20616;-75
2022/06/28 01:55:08;;;;;;;4.10;2.20;;;16.30;99.90;;;;;;5031847;28;20603;-76
2022/06/28 01:57:39;;;;;;;3.77;2.40;;;16.30;99.90;;;;;;5031811;28;20612;-76
2022/06/28 02:00:08;;;;;;;2.63;2.20;;;16.20;99.90;;;;;;5032228;28;20571;-76
2022/06/28 02:02:46;;;;;;;3.67;1.87;;;16.20;99.90;;;;;;5015856;28;20625;-76
2022/06/28 02:05:32;;;;;;;5.30;2.80;;;16.20;99.90;;;;;;5038030;28;20622;-76
2022/06/28 02:07:59;;;;;;;2.50;2.10;;;16.30;99.90;;;;;;5016572;28;20603;-76
2022/06/28 02:10:31;;;;;;;3.33;2.30;;;16.30;99.90;;;;;;5030986;28;20636;-76
2022/06/28 02:12:58;;;;;;;4.43;3.27;;;16.20;99.90;;;;;;5049036;28;20580;-76
2022/06/28 02:15:24;;;;;;;2.80;2.43;;;16.20;99.90;;;;;;5032510;28;20584;-76
2022/06/28 02:17:50;;;;;;;3.33;3.03;;;16.20;99.90;;;;;;4998867;28;20617;-77
2022/06/28 02:20:17;;;;;;;5.50;3.20;;;16.20;99.90;;;;;;5030928;28;21113;-77
2022/06/28 02:22:44;;;;;;;3.40;3.10;;;16.20;99.90;;;;;;5030535;28;20572;-77
2022/06/28 02:25:10;;;;;;;3.33;2.60;;;16.20;99.90;;;;;;5030828;28;20588;-77
2022/06/28 02:27:36;;;;;;;3.10;2.80;;;16.20;99.90;;;;;;5030565;28;20588;-77
2022/06/28 02:30:02;;;;;;;4.30;2.50;;;16.20;99.90;;;;;;5031946;28;20616;-77
2022/06/28 02:32:28;;;;;;;5.00;2.60;;;16.20;99.90;;;;;;5033599;28;20671;-77
2022/06/28 02:40:24;;;;;;;3.67;2.53;;;16.10;99.90;;;;;;5033723;28;20569;-78
2022/06/28 02:42:54;;;;;;;3.97;2.83;;;16.10;99.90;;;;;;5040682;28;20564;-77
2022/06/28 02:45:22;;;;;;;3.10;2.80;;;16.10;99.90;;;;;;5033193;28;20576;-77
2022/06/28 02:47:48;;;;;;;4.30;2.50;;;16.10;99.90;;;;;;5033320;28;20631;-76
2022/06/28 02:50:14;;;;;;;2.70;2.50;;;16.10;99.90;;;;;;5031205;28;20659;-77
2022/06/28 02:52:41;;;;;;;3.10;2.80;;;16.10;99.90;;;;;;5031893;28;20596;-77
2022/06/28 02:55:07;;;;;;;2.80;2.60;;;16.10;99.90;;;;;;5015482;28;20639;-76
2022/06/28 02:57:34;;;;;;;5.27;2.57;;;16.10;99.90;;;;;;5033906;28;20623;-77
2022/06/28 03:00:02;;;;;;;2.73;2.43;;;16.10;99.90;;;;;;5032815;28;20604;-77
2022/06/28 03:02:28;;;;;;;4.30;2.67;;;16.10;99.90;;;;;;5032760;28;20975;-76
2022/06/28 03:04:54;;;;;;;4.60;3.13;;;16.10;99.90;;;;;;5033137;28;20691;-77
2022/06/28 03:07:20;;;;;;;3.23;2.93;;;16.10;99.90;;;;;;5000163;28;20588;-76
2022/06/28 03:09:46;;;;;;;2.93;1.90;;;16.10;99.90;;;;;;5033070;28;20638;-77
2022/06/28 03:12:12;;;;;;;2.37;2.17;;;16.10;99.90;;;;;;5028966;28;20630;-77
2022/06/28 03:14:38;;;;;;;2.60;2.37;;;16.10;99.90;;;;;;5013761;28;20221;-77
2022/06/28 03:17:04;;;;;;;5.27;2.60;;;16.10;99.90;;;;;;5011440;28;20198;-77
2022/06/28 03:19:30;;;;;;;3.77;2.80;;;16.10;99.90;;;;;;5021995;28;20628;-77
2022/06/28 03:21:55;;;;;;;3.90;2.37;;;16.10;99.90;;;;;;5030484;28;20984;-77
2022/06/28 03:24:22;;;;;;;3.10;2.17;;;16.10;99.90;;;;;;5013612;28;20216;-77
2022/06/28 03:26:48;;;;;;;3.30;2.90;;;16.10;99.90;;;;;;4997831;28;21301;-77
2022/06/28 03:29:14;;;;;;;4.03;2.43;;;16.10;99.90;;;;;;5030374;28;20710;-77
2022/06/28 03:31:39;;;;;;;2.90;2.20;;;16.10;99.90;;;;;;5030814;28;20173;-77
2022/06/28 03:34:06;;;;;;;3.33;3.03;;;16.00;99.90;;;;;;5030088;28;20181;-77
2022/06/28 03:36:32;;;;;;;2.93;2.63;;;16.00;99.90;;;;;;5033628;28;20958;-77
2022/06/28 03:39:14;;;;;;;3.73;2.27;;;16.00;99.90;;;;;;5033680;28;20616;-77
2022/06/28 03:41:49;;;;;;;3.07;2.03;;;16.00;99.90;;;;;;5050056;28;20575;-77
2022/06/28 03:44:15;;;;;;;3.40;2.87;;;16.00;99.90;;;;;;5033867;28;20572;-77
2022/06/28 03:46:41;;;;;;;3.57;2.63;;;16.00;99.90;;;;;;5033946;28;20590;-77
2022/06/28 03:49:34;;;;;;;3.70;2.60;;;16.00;99.90;;;;;;5011417;28;20612;-77
2022/06/28 03:52:10;;;;;;;3.00;2.70;;;16.00;99.90;;;;;;5017192;28;20722;-77
2022/06/28 03:55:06;;;;;;;7.30;3.20;;;16.00;99.90;;;;;;5037102;28;20584;-77
2022/06/28 03:57:40;;;;;;;2.83;2.47;;;15.90;99.90;;;;;;5036849;28;20987;-78
2022/06/28 04:00:07;;;;;;;3.20;2.30;;;15.90;99.90;;;;;;5035650;28;20902;-77
2022/06/28 04:02:39;;;;;;;4.23;2.70;;;15.90;99.90;;;;;;5036565;28;20576;-77
2022/06/28 04:05:07;;;;;;;3.20;2.33;;;15.90;99.90;;;;;;5034127;28;20584;-77
2022/06/28 04:07:34;;;;;;;4.38;3.17;;;15.90;99.90;;;;;;5038003;28;20587;-77
2022/06/28 04:10:00;;;;;;;4.10;2.87;;;15.90;99.90;;;;;;5036854;28;20200;-77
2022/06/28 04:12:27;;;;;;;5.20;2.40;;;15.90;99.90;;;;;;5035496;28;21043;-77
2022/06/28 04:14:59;;;;;;;4.20;2.80;;;16.00;99.90;;;;;;5034764;28;21049;-77
2022/06/28 04:17:25;;;;;;;3.50;2.70;;;16.00;99.90;;;;;;5035504;28;20723;-78
2022/06/28 04:20:11;;;;;;;2.57;2.17;;;16.00;99.90;;;;;;5035084;28;20564;-77
2022/06/28 04:22:51;;;;;;;4.43;3.57;;;16.00;99.90;;;;;;5035770;28;21152;-77
2022/06/28 04:25:17;;;;;;;5.47;3.30;;;16.00;99.90;;;;;;5033462;28;20580;-77
2022/06/28 04:27:46;;;;;;;4.47;2.47;;;16.00;99.90;;;;;;5033594;28;20584;-77
2022/06/28 04:30:13;;;;;;;4.27;2.70;;;16.00;99.90;;;;;;5034477;28;20659;-77
2022/06/28 04:32:53;;;;;;;4.20;3.13;;;16.00;99.90;;;;;;5039680;28;20580;-77
2022/06/28 04:35:21;;;;;;;3.93;3.00;;;16.10;99.90;;;;;;5034697;28;20650;-77
2022/06/28 04:37:47;;;;;;;3.40;3.10;;;16.10;99.90;;;;;;5035156;28;20624;-77
2022/06/28 04:40:30;;;;;;;4.77;2.83;;;16.10;99.90;;;;;;5032636;28;20184;-77
2022/06/28 04:43:10;;;;;;;3.70;3.40;;;16.10;99.90;;;;;;5032987;28;20584;-77
2022/06/28 04:45:36;;;;;;;4.77;4.30;;;16.20;99.90;;;;;;5016134;28;20584;-77
2022/06/28 04:48:09;;;;;;;4.40;3.83;;;16.20;99.90;;;;;;5033049;28;20193;-76
2022/06/28 04:50:35;;;;;;;5.53;4.10;;;16.20;99.90;;;;;;5033770;28;20583;-77
2022/06/28 04:53:01;;;;;;;7.73;4.90;;;16.20;99.90;;;;;;5032592;28;20693;-77
2022/06/28 04:55:29;;;;;;;6.13;4.93;;;16.20;99.90;;;;;;5032757;28;20587;-76
2022/06/28 04:58:06;;;;;;;7.23;3.93;;;16.20;99.90;;;;;;5032790;28;21115;-77
2022/06/28 05:00:32;;;;;;;5.30;4.50;;;16.30;99.90;;;;;;5033373;28;20668;-76
2022/06/28 05:03:06;;;;;;;4.50;3.93;;;16.30;99.90;;;;;;5032695;28;20568;-76
2022/06/28 05:05:50;;;;;;;5.63;3.67;;;16.40;99.90;;;;;;5034683;28;21165;-77
2022/06/28 05:08:18;;;;;;;4.67;3.77;;;16.40;99.90;;;;;;5033876;28;20718;-78
2022/06/28 05:11:13;;;;;;;4.83;4.33;;;16.40;99.90;;;;;;5023045;28;21202;-76
2022/06/28 05:14:11;;;;;;;5.00;4.33;;;16.60;99.90;;;;;;5022310;28;21171;-77
2022/06/28 05:16:37;;;;;;;5.67;4.87;;;16.70;99.90;;;;;;5033564;28;20583;-76
2022/06/28 05:19:03;;;;;;;4.90;3.90;;;16.90;99.90;;;;;;5031886;28;20643;-76
2022/06/28 05:21:34;;;;;;;5.60;3.20;;;17.10;99.90;;;;;;5032370;28;20976;-77
2022/06/28 05:24:00;;;;;;;3.77;3.30;;;17.20;99.90;;;;;;5034088;28;20568;-76
2022/06/28 05:26:49;;;;;;;4.27;3.80;;;17.40;99.90;;;;;;5033300;28;21132;-77
2022/06/28 05:29:17;;;;;;;3.60;3.30;;;17.40;99.90;;;;;;5033523;28;20624;-77
2022/06/28 05:31:44;;;;;;;4.90;3.60;;;17.40;99.90;;;;;;5030299;28;20607;-77
2022/06/28 05:34:09;;;;;;;3.27;2.97;;;17.40;99.90;;;;;;5032001;28;20990;-77
2022/06/28 05:36:39;;;;;;;3.50;3.10;;;17.40;99.90;;;;;;5015618;28;20683;-77
2022/06/28 05:39:05;;;;;;;4.93;3.33;;;17.50;99.90;;;;;;5031974;28;20706;-78
2022/06/28 05:41:32;;;;;;;4.10;3.70;;;17.60;99.90;;;;;;5032912;28;20580;-77
2022/06/28 05:43:59;;;;;;;4.63;3.53;;;17.70;99.90;;;;;;5016622;28;20667;-77
2022/06/28 05:46:25;;;;;;;3.33;3.03;;;18.00;99.90;;;;;;5036102;28;20961;-77
2022/06/28 05:48:51;;;;;;;5.77;2.67;;;18.40;99.90;;;;;;5033748;28;21019;-78
2022/06/28 05:51:17;;;;;;;4.33;2.50;;;18.80;99.90;;;;;;5033528;28;21148;-77
2022/06/28 05:53:43;;;;;;;3.57;2.40;;;19.40;99.90;;;;;;5032799;28;20587;-77
2022/06/28 05:56:09;;;;;;;2.90;1.90;;;20.20;99.90;;;;;;5033975;28;20734;-77
2022/06/28 05:58:35;;;;;;;3.60;2.47;;;21.10;99.90;;;;;;5031725;28;20207;-78
2022/06/28 06:01:01;;;;;;;2.00;1.60;;;22.10;99.90;;;;;;5031150;28;20595;-75
2022/06/28 06:03:27;;;;;;;4.10;1.70;;;23.10;99.90;;;;;;5031340;28;20580;-76
2022/06/28 06:05:52;;;;;;;2.10;1.57;;;24.20;99.90;;;;;;5031481;28;20180;-76
2022/06/28 06:08:19;;;;;;;3.33;1.90;;;25.30;99.90;;;;;;5030915;28;20198;-76
2022/06/28 06:10:48;;;;;;;3.50;1.80;;;26.20;99.90;;;;;;5046846;28;20675;-76
2022/06/28 06:13:14;;;;;;;4.00;1.93;;;27.00;99.90;;;;;;5032551;28;21058;-77
2022/06/28 06:15:40;;;;;;;2.67;2.10;;;27.80;99.90;;;;;;5029347;28;20650;-78
2022/06/28 06:18:06;;;;;;;5.90;2.60;;;28.30;99.90;;;;;;5030219;28;20731;-77
2022/06/28 06:20:32;;;;;;;3.13;1.43;;;29.00;99.90;;;;;;5014318;28;20169;-77
2022/06/28 06:22:58;;;;;;;3.00;1.97;;;29.70;99.90;;;;;;5037697;28;20591;-78
2022/06/28 06:25:53;;;;;;;2.77;1.47;;;30.50;99.90;;;;;;5011796;28;21156;-77
2022/06/28 06:28:19;;;;;;;1.90;1.37;;;31.50;99.90;;;;;;5031327;28;20733;-76
2022/06/28 06:30:45;;;;;;;4.23;1.40;;;32.20;99.90;;;;;;5030182;28;20726;-76
2022/06/28 06:33:17;;;;;;;2.97;1.40;;;32.90;99.90;;;;;;5002352;28;20210;-77
2022/06/28 06:35:52;;;;;;;2.20;1.20;;;33.50;99.90;;;;;;5031388;28;20598;-77
2022/06/28 06:38:18;;;;;;;2.90;1.57;;;34.10;99.90;;;;;;5026375;28;20649;-77
2022/06/28 06:40:46;;;;;;;2.80;1.00;;;34.70;99.90;;;;;;5012629;28;21153;-76
2022/06/28 06:43:12;;;;;;;2.30;1.07;;;35.30;99.90;;;;;;5030354;28;20635;-75
2022/06/28 06:45:41;;;;;;;3.17;1.00;;;35.80;99.90;;;;;;5030298;28;20177;-77
2022/06/28 06:48:06;;;;;;;4.13;1.00;;;36.20;98.30;;;;;;5030165;28;20662;-76
2022/06/28 06:50:32;;;;;;;3.17;0.90;;;36.70;96.40;;;;;;5029464;28;20185;-76
2022/06/28 06:52:58;;;;;;;2.30;0.97;;;37.10;94.40;;;;;;5030733;28;21150;-76
2022/06/28 06:55:25;;;;;;;3.20;1.00;;;37.40;92.60;;;;;;5029779;28;20257;-76
2022/06/28 06:57:51;;;;;;;3.77;0.80;;;37.80;90.60;;;;;;5045716;28;20662;-76
2022/06/28 07:00:17;;;;;;;4.03;0.80;;;38.10;88.20;;;;;;5032415;28;20612;-74
2022/06/28 07:02:43;;;;;;;2.20;0.83;;;38.30;83.70;;;;;;5034331;28;20587;-75
2022/06/28 07:05:10;;;;;;;2.10;0.73;;;38.60;81.70;;;;;;5037965;28;20999;-74
2022/06/28 07:07:37;;;;;;;3.20;1.10;;;38.90;78.30;;;;;;5029158;28;20686;-76
2022/06/28 07:10:03;;;;;;;2.40;1.00;;;39.10;75.00;;;;;;5034996;28;20662;-74
2022/06/28 07:12:30;;;;;;;3.53;1.20;;;39.30;71.70;;;;;;5037384;28;20176;-74
2022/06/28 07:14:56;;;;;;;2.17;0.73;;;39.50;70.50;;;;;;5040358;28;20587;-76
2022/06/28 07:17:26;;;;;;;1.57;0.70;;;39.70;68.40;;;;;;5039536;28;20680;-73
2022/06/28 07:19:53;;;;;;;1.67;0.70;;;39.90;67.00;;;;;;5038850;28;20671;-77
2022/06/28 07:22:18;;;;;;;3.20;0.80;;;40.10;65.10;;;;;;5041340;28;20198;-76
2022/06/28 07:24:49;;;;;;;3.33;0.90;;;40.30;63.20;;;;;;5041388;28;20579;-76
2022/06/28 07:27:15;;;;;;;2.00;0.90;;;40.40;60.80;;;;;;5040495;28;20603;-74
2022/06/28 07:29:41;;;;;;;1.57;0.80;;;40.50;59.80;;;;;;5043534;28;20642;-73
2022/06/28 07:32:10;;;;;;;1.60;0.80;;;40.60;59.00;;;;;;5049223;28;20866;-73
2022/06/28 07:34:36;;;;;;;2.67;0.93;;;40.80;57.60;;;;;;5049597;28;20641;-73
2022/06/28 07:37:02;;;;;;;1.80;0.80;;;41.00;57.40;;;;;;5050622;28;20607;-74
2022/06/28 07:39:29;;;;;;;2.00;1.00;;;41.10;56.40;;;;;;5037136;28;20677;-74
2022/06/28 07:42:27;;;;;;;4.87;1.13;;;41.10;54.70;;;;;;4998966;28;20605;-74
2022/06/28 07:44:55;;;;;;;3.13;0.70;;;41.00;54.10;;;;;;5030597;28;20603;-74
2022/06/28 07:47:21;;;;;;;2.13;1.03;;;40.80;52.60;;;;;;5029478;28;20601;-74
2022/06/28 07:52:36;;;;;;;3.63;0.80;;;40.60;52.80;;;;;;5029519;28;20616;-74
2022/06/28 07:55:08;;;;;;;2.47;0.90;;;40.60;51.70;;;;;;5013366;28;20683;-74
2022/06/28 07:57:49;;;;;;;2.00;0.90;;;40.60;51.60;;;;;;5029619;28;20620;-74
2022/06/28 08:00:19;;;;;;;2.20;0.93;;;40.80;51.50;;;;;;5029150;28;20626;-74
2022/06/28 08:02:54;;;;;;;2.53;0.77;;;40.80;50.10;;;;;;5029615;28;20208;-74
2022/06/28 08:05:20;;;;;;;1.73;0.70;;;40.90;49.90;;;;;;5030667;28;20968;-74
2022/06/28 08:07:47;;;;;;;1.90;0.80;;;40.90;49.60;;;;;;5030671;28;20536;-74
2022/06/28 08:10:15;;;;;;;2.10;0.90;;;41.00;49.40;;;;;;5030758;28;20564;-74
2022/06/28 08:12:41;;;;;;;3.50;0.83;;;41.20;49.40;;;;;;5029290;28;20584;-74
2022/06/28 08:15:07;;;;;;;2.27;0.80;;;41.50;49.00;;;;;;5029204;28;20652;-73
2022/06/28 08:17:33;;;;;;;3.03;1.10;;;41.60;48.40;;;;;;5029342;28;20204;-73
2022/06/28 08:19:59;;;;;;;1.80;0.90;;;41.60;47.70;;;;;;5028962;28;20783;-75
2022/06/28 08:22:25;;;;;;;2.97;0.90;;;41.40;46.50;;;;;;5033833;28;20659;-73
2022/06/28 08:24:51;;;;;;;2.27;0.80;;;41.30;46.90;;;;;;5032736;28;20541;-74
2022/06/28 08:27:17;;;;;;;4.57;1.03;;;41.20;46.10;;;;;;5032580;28;20591;-74
2022/06/28 08:29:45;;;;;;;2.47;0.90;;;41.20;45.50;;;;;;5031558;28;20209;-74
2022/06/28 08:32:11;;;;;;;6.13;0.80;;;40.80;44.60;;;;;;5033653;28;20591;-72
2022/06/28 08:34:38;;;;;;;2.00;0.80;;;40.30;44.40;;;;;;5032851;28;20919;-73
2022/06/28 08:37:05;;;;;;;2.77;0.90;;;40.10;44.70;;;;;;5033604;28;20580;-72
2022/06/28 08:39:31;;;;;;;1.80;1.00;;;40.20;45.40;;;;;;5038331;28;20620;-74
2022/06/28 08:42:02;;;;;;;2.07;0.70;;;40.30;44.80;;;;;;5032934;28;20671;-73
2022/06/28 08:44:31;;;;;;;1.93;0.93;;;40.30;44.70;;;;;;5016279;28;20592;-76
2022/06/28 08:47:01;;;;;;;2.50;0.83;;;40.50;44.60;;;;;;5029703;28;20612;-73
2022/06/28 08:49:59;;;;;;;3.07;0.87;;;40.60;45.30;;;;;;5028510;28;20716;-75
2022/06/28 08:52:25;;;;;;;1.70;0.90;;;40.60;44.80;;;;;;5040334;28;20650;-76
2022/06/28 08:54:52;;;;;;;2.13;0.77;;;40.60;45.20;;;;;;5033342;28;20576;-72
2022/06/28 08:57:21;;;;;;;2.37;0.83;;;40.80;44.20;;;;;;5033477;28;21174;-73
2022/06/28 08:59:48;;;;;;;2.13;0.87;;;41.00;43.50;;;;;;5033619;28;20615;-72
2022/06/28 09:02:16;;;;;;;2.00;0.83;;;41.00;44.00;;;;;;5032816;28;20575;-72
2022/06/28 09:04:50;;;;;;;2.03;0.93;;;41.20;43.50;;;;;;5035149;28;20592;-71
2022/06/28 09:07:16;;;;;;;1.90;0.70;;;41.30;42.70;;;;;;5025631;28;20583;-71
2022/06/28 09:09:42;;;;;;;1.60;0.70;;;41.30;43.10;;;;;;5032851;28;20670;-73
2022/06/28 09:12:10;;;;;;;4.03;0.80;;;41.30;42.70;;;;;;5032841;28;20513;-73
2022/06/28 09:14:35;;;;;;;1.70;1.10;;;41.30;42.70;;;;;;5032127;28;20576;-72
2022/06/28 09:17:19;;;;;;;1.57;0.80;;;41.50;42.60;;;;;;5033300;28;20625;-72
2022/06/28 09:19:45;;;;;;;2.40;0.73;;;41.70;42.40;;;;;;5031470;28;20193;-72
2022/06/28 09:22:32;;;;;;;2.63;0.90;;;41.60;41.60;;;;;;5031314;28;20900;-71
2022/06/28 09:25:00;;;;;;;2.97;1.30;;;41.20;40.30;;;;;;5033234;28;20994;-72
2022/06/28 09:27:38;;;;;;;2.57;1.30;;;40.80;41.20;;;;;;5032711;28;20944;-72
2022/06/28 09:30:07;;;;;;;2.63;1.30;;;40.30;39.50;;;;;;5032883;28;20623;-72
2022/06/28 09:32:35;;;;;;;1.87;1.30;;;39.90;40.60;;;;;;5048585;28;20590;-73
2022/06/28 09:35:03;;;;;;;2.37;1.53;;;40.00;41.20;;;;;;5051143;28;20580;-73
2022/06/28 09:37:50;;;;;;;2.60;1.67;;;40.00;41.00;;;;;;5014528;28;20655;-73
2022/06/28 09:40:31;;;;;;;2.10;1.50;;;40.00;40.90;;;;;;5048169;28;20561;-73
2022/06/28 09:43:14;;;;;;;2.40;1.50;;;40.10;41.40;;;;;;5033140;28;20567;-73
2022/06/28 09:45:46;;;;;;;2.53;1.30;;;39.90;40.00;;;;;;5032316;28;20611;-73
2022/06/28 09:48:17;;;;;;;2.57;1.87;;;39.50;40.50;;;;;;5048525;28;21252;-73
2022/06/28 09:50:44;;;;;;;2.40;1.60;;;39.40;39.80;;;;;;5048567;28;20588;-73
2022/06/28 09:53:14;;;;;;;4.00;1.70;;;39.00;39.40;;;;;;5033041;28;20568;-73
2022/06/28 09:55:40;;;;;;;2.70;1.40;;;38.60;39.00;;;;;;5048674;28;20564;-74
2022/06/28 09:58:07;;;;;;;1.77;1.17;;;38.20;40.00;;;;;;5031559;28;20646;-73
2022/06/28 10:00:35;;;;;;;3.03;1.50;;;38.40;41.20;;;;;;5019565;28;20599;-74
2022/06/28 10:03:02;;;;;;;2.87;1.30;;;38.60;40.40;;;;;;5050674;28;20571;-73
2022/06/28 10:05:28;;;;;;;1.93;0.90;;;38.60;41.10;;;;;;5014984;28;21093;-73
2022/06/28 10:07:54;;;;;;;2.30;1.17;;;38.90;40.70;;;;;;5031252;28;20980;-73
2022/06/28 10:10:22;;;;;;;3.93;1.20;;;38.90;39.50;;;;;;5031560;28;20720;-74
2022/06/28 10:15:40;;;;;;;2.93;0.90;;;38.50;38.30;;;;;;5032628;28;20591;-73
2022/06/28 10:18:21;;;;;;;2.10;0.83;;;38.10;37.80;;;;;;5032372;28;20616;-73
2022/06/28 10:20:48;;;;;;;3.53;0.70;;;38.00;37.60;;;;;;5031283;28;20633;-72
2022/06/28 10:23:33;;;;;;;1.60;0.90;;;37.70;38.10;;;;;;5032345;28;20591;-72
2022/06/28 10:26:14;;;;;;;1.93;0.70;;;37.80;35.90;;;;;;5032422;28;20595;-73
2022/06/28 10:28:44;;;;;;;2.03;0.80;;;38.00;37.80;;;;;;5047102;28;20988;-73
2022/06/28 10:31:23;;;;;;;1.90;0.60;;;38.10;38.20;;;;;;5031670;28;20608;-72
2022/06/28 10:33:52;;;;;;;3.40;1.00;;;38.50;38.20;;;;;;5014285;28;20675;-73
2022/06/28 10:36:21;;;;;;;2.60;0.70;;;38.50;37.10;;;;;;5031138;28;20912;-73
2022/06/28 10:39:09;;;;;;;1.83;0.90;;;38.00;35.20;;;;;;5031860;28;20607;-73
2022/06/28 10:41:40;;;;;;;1.30;0.60;;;37.40;35.60;;;;;;5015205;28;20658;-73
2022/06/28 10:44:09;;;;;;;1.77;0.60;;;37.00;36.30;;;;;;5031456;28;20573;-73
2022/06/28 10:46:35;;;;;;;2.30;0.70;;;37.10;37.20;;;;;;5032057;28;20571;-73
2022/06/28 10:49:07;;;;;;;2.53;0.67;;;37.40;37.20;;;;;;5030568;28;21326;-74
2022/06/28 10:51:34;;;;;;;1.30;0.60;;;37.50;35.80;;;;;;5031953;28;20622;-73
2022/06/28 10:54:09;;;;;;;2.70;0.90;;;37.40;36.00;;;;;;5030643;28;20584;-74
2022/06/28 10:56:43;;;;;;;2.67;0.80;;;37.00;35.30;;;;;;5031728;28;20568;-73
2022/06/28 10:59:11;;;;;;;1.40;0.60;;;36.60;35.70;;;;;;5030912;28;20596;-74
2022/06/28 11:01:40;;;;;;;2.53;0.60;;;36.50;37.40;;;;;;5031690;28;20588;-73
2022/06/28 11:04:11;;;;;;;1.40;0.70;;;36.70;36.90;;;;;;5047270;28;20604;-73
2022/06/28 11:06:45;;;;;;;1.87;0.63;;;36.60;36.70;;;;;;5029313;28;20581;-74
2022/06/28 11:09:36;;;;;;;1.80;0.70;;;36.20;36.10;;;;;;5030213;28;20645;-75
2022/06/28 11:12:15;;;;;;;1.77;0.70;;;36.20;36.20;;;;;;5031113;28;20603;-74
2022/06/28 11:14:48;;;;;;;2.00;0.80;;;36.30;37.40;;;;;;5031264;28;20568;-74
2022/06/28 11:17:19;;;;;;;1.30;0.70;;;36.40;37.70;;;;;;5030037;28;20588;-74
2022/06/28 11:19:53;;;;;;;2.47;0.70;;;36.30;37.00;;;;;;5030744;28;21031;-75
2022/06/28 11:22:23;;;;;;;2.20;0.80;;;36.20;37.50;;;;;;5029466;28;20579;-74
2022/06/28 11:24:49;;;;;;;1.60;0.70;;;36.00;36.80;;;;;;5032185;28;20607;-74
2022/06/28 11:27:24;;;;;;;1.83;0.80;;;36.00;38.00;;;;;;5031462;28;20572;-73
2022/06/28 11:29:59;;;;;;;1.70;0.60;;;36.10;37.40;;;;;;5063139;28;20611;-73
2022/06/28 11:32:31;;;;;;;2.10;0.70;;;36.00;36.70;;;;;;5063011;28;20576;-73
2022/06/28 11:35:05;;;;;;;2.60;0.70;;;36.00;37.10;;;;;;5030327;28;20705;-73
2022/06/28 11:37:34;;;;;;;1.37;0.60;;;36.20;36.90;;;;;;5025418;28;20985;-74
2022/06/28 11:40:02;;;;;;;2.87;0.63;;;36.20;36.50;;;;;;5029675;28;20631;-73
2022/06/28 11:42:29;;;;;;;1.70;0.70;;;36.20;36.60;;;;;;5030216;28;20687;-73
2022/06/28 11:44:56;;;;;;;4.70;0.60;;;36.20;36.50;;;;;;5036780;28;20919;-74
2022/06/28 11:47:22;;;;;;;1.50;0.70;;;36.20;35.60;;;;;;5041762;28;20711;-73
2022/06/28 11:50:09;;;;;;;2.00;0.60;;;36.00;35.50;;;;;;5029598;28;20616;-72
2022/06/28 11:52:57;;;;;;;1.63;0.70;;;35.40;34.50;;;;;;5059951;28;20584;-72
2022/06/28 11:55:56;;;;;;;1.40;0.50;;;34.80;35.70;;;;;;5036694;28;20686;-72
2022/06/28 11:58:28;;;;;;;1.53;0.60;;;34.70;36.30;;;;;;4982783;28;21079;-72
2022/06/28 12:01:14;;;;;;;1.80;0.70;;;34.30;35.40;;;;;;5026746;28;20583;-74
2022/06/28 12:03:43;;;;;;;3.50;0.70;;;33.80;35.70;;;;;;5013794;28;20728;-73
2022/06/28 12:06:11;;;;;;;1.57;0.60;;;33.20;35.70;;;;;;5024827;28;20581;-73
2022/06/28 12:08:51;;;;;;;1.30;0.60;;;32.80;36.60;;;;;;5035490;28;20651;-73
2022/06/28 12:11:33;;;;;;;2.03;0.60;;;32.70;37.70;;;;;;5014178;28;20568;-73
2022/06/28 12:13:59;;;;;;;1.87;0.60;;;32.60;37.70;;;;;;5013892;28;20604;-73
2022/06/28 12:16:37;;;;;;;2.23;0.80;;;32.40;37.50;;;;;;5014581;28;21110;-73
2022/06/28 12:19:05;;;;;;;2.03;0.80;;;32.20;37.10;;;;;;5029926;28;20258;-73
2022/06/28 12:21:31;;;;;;;1.97;0.70;;;32.00;37.30;;;;;;5013410;28;20564;-73
2022/06/28 12:23:58;;;;;;;2.80;0.63;;;32.00;38.00;;;;;;5012362;28;20569;-73
2022/06/28 12:26:39;;;;;;;1.83;0.70;;;32.20;38.20;;;;;;4999156;28;20218;-73
2022/06/28 12:29:06;;;;;;;1.30;0.50;;;32.20;38.00;;;;;;5034509;28;20712;-74
2022/06/28 12:31:31;;;;;;;1.90;0.70;;;32.20;37.70;;;;;;5034428;28;20569;-74
2022/06/28 12:33:57;;;;;;;1.40;0.60;;;32.00;37.40;;;;;;5034551;28;20912;-74
2022/06/28 12:36:23;;;;;;;2.03;0.67;;;31.80;37.90;;;;;;5033345;28;20250;-76
2022/06/28 12:38:49;;;;;;;1.30;0.60;;;31.80;38.50;;;;;;5033179;28;20779;-76
2022/06/28 12:41:15;;;;;;;1.83;0.70;;;31.90;38.80;;;;;;5032594;28;20180;-77
2022/06/28 12:43:41;;;;;;;2.97;0.60;;;32.00;39.10;;;;;;5033035;28;20927;-76
2022/06/28 12:46:06;;;;;;;1.40;0.60;;;32.00;38.90;;;;;;5000058;28;20185;-76
2022/06/28 12:48:32;;;;;;;1.30;0.50;;;31.90;38.50;;;;;;5033570;28;20641;-76
2022/06/28 12:50:59;;;;;;;2.23;0.67;;;31.80;38.40;;;;;;5032528;28;20545;-76
2022/06/28 12:53:25;;;;;;;3.10;0.90;;;31.60;37.80;;;;;;5032653;28;20170;-76
2022/06/28 12:55:51;;;;;;;2.70;0.93;;;31.20;37.60;;;;;;5049285;28;20602;-76
2022/06/28 12:58:17;;;;;;;1.63;0.60;;;30.90;37.60;;;;;;5034042;28;20687;-76
2022/06/28 13:00:44;;;;;;;1.67;0.60;;;30.40;37.60;;;;;;5049163;28;20588;-75
2022/06/28 13:03:10;;;;;;;2.00;0.70;;;30.10;38.50;;;;;;5033976;28;20576;-75
2022/06/28 13:05:37;;;;;;;1.50;0.60;;;30.00;38.60;;;;;;5049120;28;20618;-76
2022/06/28 13:08:03;;;;;;;1.77;0.60;;;29.70;38.50;;;;;;5033110;28;20627;-76
2022/06/28 13:10:29;;;;;;;1.77;0.70;;;29.40;39.10;;;;;;5049811;28;20935;-77
2022/06/28 13:12:55;;;;;;;1.60;0.63;;;29.30;39.60;;;;;;5032769;28;20667;-75
2022/06/28 13:15:20;;;;;;;2.20;0.50;;;29.10;39.60;;;;;;5034113;28;20580;-76